sensor_id;sensor_type;location;lat;lon;timestamp;temperature;humidity
1429;DHT22;708;51.442;7.016;2023-12-04T00:01:43;3.50;99.90
1429;DHT22;708;51.442;7.016;2023-12-04T00:04:11;3.50;99.90
1429;DHT22;708;51.442;7.016;2023-12-04T00:06:38;3.60;99.90
1429;DHT22;708;51.442;7.016;2023-12-04T00:09:06;3.50;99.90
1429;DHT22;708;51.442;7.016;2023-12-04T00:11:33;3.50;99.90
1429;DHT22;708;51.442;7.016;2023-12-04T00:14:00;3.50;99.90
1429;DHT22;708;51.442;7.016;2023-12-04T00:16:27;3.50;99.90
1429;DHT22;708;51.442;7.016;2023-12-04T00:18:54;3.50;99.90
1429;DHT22;708;51.442;7.016;2023-12-04T00:21:20;3.50;99.90
1429;DHT22;708;51.442;7.016;2023-12-04T00:23:47;3.50;99.90
1429;DHT22;708;51.442;7.016;2023-12-04T00:26:15;3.60;99.90
1429;DHT22;708;51.442;7.016;2023-12-04T00:28:42;3.50;99.90
1429;DHT22;708;51.442;7.016;2023-12-04T00:31:09;3.60;99.90
1429;DHT22;708;51.442;7.016;2023-12-04T00:33:37;3.50;99.90
1429;DHT22;708;51.442;7.016;2023-12-04T00:36:04;3.50;99.90
1429;DHT22;708;51.442;7.016;2023-12-04T00:38:32;3.60;99.90
1429;DHT22;708;51.442;7.016;2023-12-04T00:40:58;3.50;99.90
1429;DHT22;708;51.442;7.016;2023-12-04T00:43:26;3.60;99.90
1429;DHT22;708;51.442;7.016;2023-12-04T00:45:53;3.60;99.90
1429;DHT22;708;51.442;7.016;2023-12-04T00:48:20;3.60;99.90
1429;DHT22;708;51.442;7.016;2023-12-04T00:50:47;3.60;99.90
1429;DHT22;708;51.442;7.016;2023-12-04T00:53:14;3.70;99.90
1429;DHT22;708;51.442;7.016;2023-12-04T00:55:41;3.70;99.90
1429;DHT22;708;51.442;7.016;2023-12-04T00:58:08;3.80;99.90
1429;DHT22;708;51.442;7.016;2023-12-04T01:00:36;3.90;99.90
1429;DHT22;708;51.442;7.016;2023-12-04T01:03:03;3.90;99.90
1429;DHT22;708;51.442;7.016;2023-12-04T01:05:30;3.90;99.90
1429;DHT22;708;51.442;7.016;2023-12-04T01:07:57;3.90;99.90
1429;DHT22;708;51.442;7.016;2023-12-04T01:10:25;4.00;99.90
1429;DHT22;708;51.442;7.016;2023-12-04T01:12:52;4.00;99.90
1429;DHT22;708;51.442;7.016;2023-12-04T01:15:19;3.90;99.90
1429;DHT22;708;51.442;7.016;2023-12-04T01:17:47;3.90;99.90
1429;DHT22;708;51.442;7.016;2023-12-04T01:20:14;3.90;99.90
1429;DHT22;708;51.442;7.016;2023-12-04T01:22:41;3.80;99.90
1429;DHT22;708;51.442;7.016;2023-12-04T01:25:09;3.80;99.90
1429;DHT22;708;51.442;7.016;2023-12-04T01:27:36;3.90;99.90
1429;DHT22;708;51.442;7.016;2023-12-04T01:30:04;3.80;99.90
1429;DHT22;708;51.442;7.016;2023-12-04T01:32:31;3.80;99.90
1429;DHT22;708;51.442;7.016;2023-12-04T01:34:59;3.70;99.90
1429;DHT22;708;51.442;7.016;2023-12-04T01:37:26;3.80;99.90
1429;DHT22;708;51.442;7.016;2023-12-04T01:39:53;3.70;99.90
1429;DHT22;708;51.442;7.016;2023-12-04T01:42:20;3.70;99.90
1429;DHT22;708;51.442;7.016;2023-12-04T01:44:47;3.70;99.90
1429;DHT22;708;51.442;7.016;2023-12-04T01:47:14;3.70;99.90
1429;DHT22;708;51.442;7.016;2023-12-04T01:49:41;3.70;99.90
1429;DHT22;708;51.442;7.016;2023-12-04T01:52:09;3.70;99.90
1429;DHT22;708;51.442;7.016;2023-12-04T01:54:37;3.70;99.90
1429;DHT22;708;51.442;7.016;2023-12-04T01:57:05;3.70;99.90
1429;DHT22;708;51.442;7.016;2023-12-04T01:59:32;3.70;99.90
1429;DHT22;708;51.442;7.016;2023-12-04T02:01:59;3.70;99.90
1429;DHT22;708;51.442;7.016;2023-12-04T02:04:27;3.70;99.90
1429;DHT22;708;51.442;7.016;2023-12-04T02:06:54;3.70;99.90
1429;DHT22;708;51.442;7.016;2023-12-04T02:09:23;3.70;99.90
1429;DHT22;708;51.442;7.016;2023-12-04T02:11:50;3.70;99.90
1429;DHT22;708;51.442;7.016;2023-12-04T02:14:18;3.60;99.90
1429;DHT22;708;51.442;7.016;2023-12-04T02:16:45;3.60;99.90
1429;DHT22;708;51.442;7.016;2023-12-04T02:19:13;3.60;99.90
1429;DHT22;708;51.442;7.016;2023-12-04T02:21:40;3.60;99.90
1429;DHT22;708;51.442;7.016;2023-12-04T02:24:08;3.60;99.90
1429;DHT22;708;51.442;7.016;2023-12-04T02:26:40;3.60;99.90
1429;DHT22;708;51.442;7.016;2023-12-04T02:29:13;3.50;99.90
1429;DHT22;708;51.442;7.016;2023-12-04T02:31:41;3.60;99.90
1429;DHT22;708;51.442;7.016;2023-12-04T02:34:08;3.60;99.90
1429;DHT22;708;51.442;7.016;2023-12-04T02:36:37;3.60;99.90
1429;DHT22;708;51.442;7.016;2023-12-04T02:39:05;3.60;99.90
1429;DHT22;708;51.442;7.016;2023-12-04T02:41:33;3.60;99.90
1429;DHT22;708;51.442;7.016;2023-12-04T02:44:00;3.60;99.90
1429;DHT22;708;51.442;7.016;2023-12-04T02:46:27;3.70;99.90
1429;DHT22;708;51.442;7.016;2023-12-04T02:48:54;3.70;99.90
1429;DHT22;708;51.442;7.016;2023-12-04T02:51:21;3.70;99.90
1429;DHT22;708;51.442;7.016;2023-12-04T02:53:51;3.60;99.90
1429;DHT22;708;51.442;7.016;2023-12-04T02:56:18;3.60;99.90
1429;DHT22;708;51.442;7.016;2023-12-04T02:58:46;3.60;99.90
1429;DHT22;708;51.442;7.016;2023-12-04T03:01:13;3.60;99.90
1429;DHT22;708;51.442;7.016;2023-12-04T03:03:39;3.70;99.90
1429;DHT22;708;51.442;7.016;2023-12-04T03:06:07;3.60;99.90
1429;DHT22;708;51.442;7.016;2023-12-04T03:08:33;3.70;99.90
1429;DHT22;708;51.442;7.016;2023-12-04T03:11:01;3.60;99.90
1429;DHT22;708;51.442;7.016;2023-12-04T03:13:28;3.60;99.90
1429;DHT22;708;51.442;7.016;2023-12-04T03:15:56;3.70;99.90
1429;DHT22;708;51.442;7.016;2023-12-04T03:18:23;3.70;99.90
1429;DHT22;708;51.442;7.016;2023-12-04T03:20:51;3.70;99.90
1429;DHT22;708;51.442;7.016;2023-12-04T03:23:18;3.70;99.90
1429;DHT22;708;51.442;7.016;2023-12-04T03:25:44;3.70;99.90
1429;DHT22;708;51.442;7.016;2023-12-04T03:28:11;3.80;99.90
1429;DHT22;708;51.442;7.016;2023-12-04T03:30:38;3.80;99.90
1429;DHT22;708;51.442;7.016;2023-12-04T03:33:06;3.80;99.90
1429;DHT22;708;51.442;7.016;2023-12-04T03:35:33;3.80;99.90
1429;DHT22;708;51.442;7.016;2023-12-04T03:38:00;3.80;99.90
1429;DHT22;708;51.442;7.016;2023-12-04T03:40:27;3.80;99.90
1429;DHT22;708;51.442;7.016;2023-12-04T03:42:54;3.80;99.90
1429;DHT22;708;51.442;7.016;2023-12-04T03:45:21;3.90;99.90
1429;DHT22;708;51.442;7.016;2023-12-04T03:47:48;3.90;99.90
1429;DHT22;708;51.442;7.016;2023-12-04T03:50:16;3.90;99.90
1429;DHT22;708;51.442;7.016;2023-12-04T03:52:43;4.00;99.90
1429;DHT22;708;51.442;7.016;2023-12-04T03:55:09;4.10;99.90
1429;DHT22;708;51.442;7.016;2023-12-04T03:57:36;4.00;99.90
1429;DHT22;708;51.442;7.016;2023-12-04T04:00:04;4.00;99.90
1429;DHT22;708;51.442;7.016;2023-12-04T04:02:31;4.00;99.90
1429;DHT22;708;51.442;7.016;2023-12-04T04:04:58;4.00;99.90
1429;DHT22;708;51.442;7.016;2023-12-04T04:07:26;4.00;99.90
1429;DHT22;708;51.442;7.016;2023-12-04T04:09:53;4.00;99.90
1429;DHT22;708;51.442;7.016;2023-12-04T04:12:20;3.90;99.90
1429;DHT22;708;51.442;7.016;2023-12-04T04:14:47;3.90;99.90
1429;DHT22;708;51.442;7.016;2023-12-04T04:17:13;3.90;99.90
1429;DHT22;708;51.442;7.016;2023-12-04T04:19:41;3.90;99.90
1429;DHT22;708;51.442;7.016;2023-12-04T04:22:07;3.90;99.90
1429;DHT22;708;51.442;7.016;2023-12-04T04:24:36;3.90;99.90
1429;DHT22;708;51.442;7.016;2023-12-04T04:27:03;3.90;99.90
1429;DHT22;708;51.442;7.016;2023-12-04T04:29:30;3.90;99.90
1429;DHT22;708;51.442;7.016;2023-12-04T04:31:57;3.90;99.90
1429;DHT22;708;51.442;7.016;2023-12-04T04:34:23;3.90;99.90
1429;DHT22;708;51.442;7.016;2023-12-04T04:36:50;3.90;99.90
1429;DHT22;708;51.442;7.016;2023-12-04T04:39:17;4.00;99.90
1429;DHT22;708;51.442;7.016;2023-12-04T04:41:45;3.90;99.90
1429;DHT22;708;51.442;7.016;2023-12-04T04:44:12;3.90;99.90
1429;DHT22;708;51.442;7.016;2023-12-04T04:46:39;3.90;99.90
1429;DHT22;708;51.442;7.016;2023-12-04T04:49:06;3.90;99.90
1429;DHT22;708;51.442;7.016;2023-12-04T04:51:33;3.90;99.90
1429;DHT22;708;51.442;7.016;2023-12-04T04:54:00;3.90;99.90
1429;DHT22;708;51.442;7.016;2023-12-04T04:56:27;3.90;99.90
1429;DHT22;708;51.442;7.016;2023-12-04T04:58:57;3.90;99.90
1429;DHT22;708;51.442;7.016;2023-12-04T05:01:24;3.90;99.90
1429;DHT22;708;51.442;7.016;2023-12-04T05:03:51;3.90;99.90
1429;DHT22;708;51.442;7.016;2023-12-04T05:06:18;3.90;99.90
1429;DHT22;708;51.442;7.016;2023-12-04T05:08:44;4.00;99.90
1429;DHT22;708;51.442;7.016;2023-12-04T05:11:14;4.00;99.90
1429;DHT22;708;51.442;7.016;2023-12-04T05:13:41;4.00;99.90
1429;DHT22;708;51.442;7.016;2023-12-04T05:16:09;4.00;99.90
1429;DHT22;708;51.442;7.016;2023-12-04T05:18:38;4.10;99.90
1429;DHT22;708;51.442;7.016;2023-12-04T05:21:08;4.10;99.90
1429;DHT22;708;51.442;7.016;2023-12-04T05:23:35;4.10;99.90
1429;DHT22;708;51.442;7.016;2023-12-04T05:26:02;4.00;99.90
1429;DHT22;708;51.442;7.016;2023-12-04T05:28:29;4.00;99.90
1429;DHT22;708;51.442;7.016;2023-12-04T05:30:55;4.00;99.90
1429;DHT22;708;51.442;7.016;2023-12-04T05:33:23;4.00;99.90
1429;DHT22;708;51.442;7.016;2023-12-04T05:35:51;4.10;99.90
1429;DHT22;708;51.442;7.016;2023-12-04T05:38:18;4.10;99.90
1429;DHT22;708;51.442;7.016;2023-12-04T05:40:45;4.00;99.90
1429;DHT22;708;51.442;7.016;2023-12-04T05:43:11;4.00;99.90
1429;DHT22;708;51.442;7.016;2023-12-04T05:45:39;4.00;99.90
1429;DHT22;708;51.442;7.016;2023-12-04T05:48:06;3.90;99.90
1429;DHT22;708;51.442;7.016;2023-12-04T05:50:35;3.90;99.90
1429;DHT22;708;51.442;7.016;2023-12-04T05:53:02;3.90;99.90
1429;DHT22;708;51.442;7.016;2023-12-04T05:55:28;3.90;99.90
1429;DHT22;708;51.442;7.016;2023-12-04T05:57:55;3.80;99.90
1429;DHT22;708;51.442;7.016;2023-12-04T06:00:22;3.80;99.90
1429;DHT22;708;51.442;7.016;2023-12-04T06:02:49;3.80;99.90
1429;DHT22;708;51.442;7.016;2023-12-04T06:05:15;3.90;99.90
1429;DHT22;708;51.442;7.016;2023-12-04T06:07:44;3.80;99.90
1429;DHT22;708;51.442;7.016;2023-12-04T06:10:10;3.80;99.90
1429;DHT22;708;51.442;7.016;2023-12-04T06:12:37;3.80;99.90
1429;DHT22;708;51.442;7.016;2023-12-04T06:15:05;3.80;99.90
1429;DHT22;708;51.442;7.016;2023-12-04T06:17:32;3.90;99.90
1429;DHT22;708;51.442;7.016;2023-12-04T06:19:59;3.90;99.90
1429;DHT22;708;51.442;7.016;2023-12-04T06:22:26;3.90;99.90
1429;DHT22;708;51.442;7.016;2023-12-04T06:24:55;3.90;99.90
1429;DHT22;708;51.442;7.016;2023-12-04T06:27:22;4.00;99.90
1429;DHT22;708;51.442;7.016;2023-12-04T06:29:50;4.00;99.90
1429;DHT22;708;51.442;7.016;2023-12-04T06:32:17;3.90;99.90
1429;DHT22;708;51.442;7.016;2023-12-04T06:34:45;3.90;99.90
1429;DHT22;708;51.442;7.016;2023-12-04T06:37:13;3.80;99.90
1429;DHT22;708;51.442;7.016;2023-12-04T06:39:40;3.90;99.90
1429;DHT22;708;51.442;7.016;2023-12-04T06:42:11;3.90;99.90
1429;DHT22;708;51.442;7.016;2023-12-04T06:44:38;3.90;99.90
1429;DHT22;708;51.442;7.016;2023-12-04T06:47:08;3.90;99.90
1429;DHT22;708;51.442;7.016;2023-12-04T06:49:35;4.00;99.90
1429;DHT22;708;51.442;7.016;2023-12-04T06:52:03;3.80;99.90
1429;DHT22;708;51.442;7.016;2023-12-04T06:54:30;3.80;99.90
1429;DHT22;708;51.442;7.016;2023-12-04T06:56:57;3.80;99.90
1429;DHT22;708;51.442;7.016;2023-12-04T06:59:25;3.70;99.90
1429;DHT22;708;51.442;7.016;2023-12-04T07:01:52;3.70;99.90
1429;DHT22;708;51.442;7.016;2023-12-04T07:04:18;3.70;99.90
1429;DHT22;708;51.442;7.016;2023-12-04T07:06:46;3.70;99.90
1429;DHT22;708;51.442;7.016;2023-12-04T07:09:14;3.60;99.90
1429;DHT22;708;51.442;7.016;2023-12-04T07:11:42;3.50;99.90
1429;DHT22;708;51.442;7.016;2023-12-04T07:14:09;3.50;99.90
1429;DHT22;708;51.442;7.016;2023-12-04T07:16:40;3.50;99.90
1429;DHT22;708;51.442;7.016;2023-12-04T07:19:08;3.50;99.90
1429;DHT22;708;51.442;7.016;2023-12-04T07:21:36;3.40;99.90
1429;DHT22;708;51.442;7.016;2023-12-04T07:24:03;3.40;99.90
1429;DHT22;708;51.442;7.016;2023-12-04T07:26:30;3.40;99.90
1429;DHT22;708;51.442;7.016;2023-12-04T07:28:57;3.50;99.90
1429;DHT22;708;51.442;7.016;2023-12-04T07:31:24;3.50;99.90
1429;DHT22;708;51.442;7.016;2023-12-04T07:33:52;3.50;99.90
1429;DHT22;708;51.442;7.016;2023-12-04T07:36:19;3.50;99.90
1429;DHT22;708;51.442;7.016;2023-12-04T07:38:46;3.60;99.90
1429;DHT22;708;51.442;7.016;2023-12-04T07:41:14;3.60;99.90
1429;DHT22;708;51.442;7.016;2023-12-04T07:43:41;3.70;99.90
1429;DHT22;708;51.442;7.016;2023-12-04T07:46:09;3.70;99.90
1429;DHT22;708;51.442;7.016;2023-12-04T07:48:37;3.70;99.90
1429;DHT22;708;51.442;7.016;2023-12-04T07:51:07;3.80;99.90
1429;DHT22;708;51.442;7.016;2023-12-04T07:53:34;3.80;99.90
1429;DHT22;708;51.442;7.016;2023-12-04T07:56:01;3.80;99.90
1429;DHT22;708;51.442;7.016;2023-12-04T07:58:30;3.90;99.90
1429;DHT22;708;51.442;7.016;2023-12-04T08:00:57;3.90;99.90
1429;DHT22;708;51.442;7.016;2023-12-04T08:03:24;4.00;99.90
1429;DHT22;708;51.442;7.016;2023-12-04T08:05:51;4.00;99.90
1429;DHT22;708;51.442;7.016;2023-12-04T08:08:19;4.00;99.90
1429;DHT22;708;51.442;7.016;2023-12-04T08:10:47;4.10;99.90
1429;DHT22;708;51.442;7.016;2023-12-04T08:13:13;4.20;99.90
1429;DHT22;708;51.442;7.016;2023-12-04T08:15:40;4.30;99.90
1429;DHT22;708;51.442;7.016;2023-12-04T08:18:07;4.30;99.90
1429;DHT22;708;51.442;7.016;2023-12-04T08:20:34;4.30;99.90
1429;DHT22;708;51.442;7.016;2023-12-04T08:23:01;4.40;99.90
1429;DHT22;708;51.442;7.016;2023-12-04T08:25:29;4.50;99.90
1429;DHT22;708;51.442;7.016;2023-12-04T08:27:58;4.60;99.90
1429;DHT22;708;51.442;7.016;2023-12-04T08:30:25;4.70;99.90
1429;DHT22;708;51.442;7.016;2023-12-04T08:32:52;4.80;99.90
1429;DHT22;708;51.442;7.016;2023-12-04T08:35:19;4.80;99.90
1429;DHT22;708;51.442;7.016;2023-12-04T08:37:47;4.90;99.90
1429;DHT22;708;51.442;7.016;2023-12-04T08:40:14;5.00;99.90
1429;DHT22;708;51.442;7.016;2023-12-04T08:42:43;5.00;99.90
1429;DHT22;708;51.442;7.016;2023-12-04T08:45:10;5.10;99.70
1429;DHT22;708;51.442;7.016;2023-12-04T08:47:37;5.10;99.50
1429;DHT22;708;51.442;7.016;2023-12-04T08:50:04;5.10;99.50
1429;DHT22;708;51.442;7.016;2023-12-04T08:52:32;5.20;99.30
1429;DHT22;708;51.442;7.016;2023-12-04T08:54:59;5.20;99.40
1429;DHT22;708;51.442;7.016;2023-12-04T08:57:26;5.20;99.40
1429;DHT22;708;51.442;7.016;2023-12-04T08:59:54;5.20;99.20
1429;DHT22;708;51.442;7.016;2023-12-04T09:02:21;5.20;99.00
1429;DHT22;708;51.442;7.016;2023-12-04T09:04:47;5.30;98.90
1429;DHT22;708;51.442;7.016;2023-12-04T09:07:14;5.30;98.90
1429;DHT22;708;51.442;7.016;2023-12-04T09:09:41;5.40;98.60
1429;DHT22;708;51.442;7.016;2023-12-04T09:12:09;5.40;98.20
1429;DHT22;708;51.442;7.016;2023-12-04T09:14:36;5.50;98.30
1429;DHT22;708;51.442;7.016;2023-12-04T09:17:05;5.50;97.70
1429;DHT22;708;51.442;7.016;2023-12-04T09:19:34;5.50;97.60
1429;DHT22;708;51.442;7.016;2023-12-04T09:22:01;5.50;97.70
1429;DHT22;708;51.442;7.016;2023-12-04T09:24:28;5.50;97.40
1429;DHT22;708;51.442;7.016;2023-12-04T09:26:56;5.50;97.40
1429;DHT22;708;51.442;7.016;2023-12-04T09:29:23;5.50;97.30
1429;DHT22;708;51.442;7.016;2023-12-04T09:31:51;5.40;97.70
1429;DHT22;708;51.442;7.016;2023-12-04T09:34:19;5.50;97.80
1429;DHT22;708;51.442;7.016;2023-12-04T09:36:48;5.50;98.10
1429;DHT22;708;51.442;7.016;2023-12-04T09:39:14;5.50;98.30
1429;DHT22;708;51.442;7.016;2023-12-04T09:41:42;5.60;98.70
1429;DHT22;708;51.442;7.016;2023-12-04T09:44:09;5.60;98.60
1429;DHT22;708;51.442;7.016;2023-12-04T09:46:36;5.70;98.80
1429;DHT22;708;51.442;7.016;2023-12-04T09:49:04;5.70;99.00
1429;DHT22;708;51.442;7.016;2023-12-04T09:51:32;5.70;99.20
1429;DHT22;708;51.442;7.016;2023-12-04T09:54:02;5.80;99.00
1429;DHT22;708;51.442;7.016;2023-12-04T09:56:30;5.80;98.90
1429;DHT22;708;51.442;7.016;2023-12-04T09:58:58;5.90;99.20
1429;DHT22;708;51.442;7.016;2023-12-04T10:01:27;6.00;99.20
1429;DHT22;708;51.442;7.016;2023-12-04T10:03:55;6.00;98.50
1429;DHT22;708;51.442;7.016;2023-12-04T10:06:24;6.10;98.30
1429;DHT22;708;51.442;7.016;2023-12-04T10:08:54;6.10;98.40
1429;DHT22;708;51.442;7.016;2023-12-04T10:11:23;6.00;98.00
1429;DHT22;708;51.442;7.016;2023-12-04T10:13:50;5.90;98.30
1429;DHT22;708;51.442;7.016;2023-12-04T10:16:31;5.90;98.70
1429;DHT22;708;51.442;7.016;2023-12-04T10:19:14;5.90;98.60
1429;DHT22;708;51.442;7.016;2023-12-04T10:21:42;6.00;98.90
1429;DHT22;708;51.442;7.016;2023-12-04T10:24:10;5.90;99.10
1429;DHT22;708;51.442;7.016;2023-12-04T10:26:37;5.90;98.80
1429;DHT22;708;51.442;7.016;2023-12-04T10:29:04;5.90;99.10
1429;DHT22;708;51.442;7.016;2023-12-04T10:31:34;5.70;98.80
1429;DHT22;708;51.442;7.016;2023-12-04T10:34:02;5.80;99.50
1429;DHT22;708;51.442;7.016;2023-12-04T10:36:30;5.70;99.50
1429;DHT22;708;51.442;7.016;2023-12-04T10:39:00;5.70;99.70
1429;DHT22;708;51.442;7.016;2023-12-04T10:41:31;5.80;99.80
1429;DHT22;708;51.442;7.016;2023-12-04T10:43:58;5.90;99.80
1429;DHT22;708;51.442;7.016;2023-12-04T10:46:27;5.80;99.90
1429;DHT22;708;51.442;7.016;2023-12-04T10:48:56;5.80;99.90
1429;DHT22;708;51.442;7.016;2023-12-04T10:51:24;5.70;99.90
1429;DHT22;708;51.442;7.016;2023-12-04T10:53:52;5.80;99.90
1429;DHT22;708;51.442;7.016;2023-12-04T10:56:27;5.80;99.90
1429;DHT22;708;51.442;7.016;2023-12-04T10:58:57;5.80;99.90
1429;DHT22;708;51.442;7.016;2023-12-04T11:01:26;5.80;99.90
1429;DHT22;708;51.442;7.016;2023-12-04T11:03:55;5.80;99.90
1429;DHT22;708;51.442;7.016;2023-12-04T11:06:25;5.80;99.90
1429;DHT22;708;51.442;7.016;2023-12-04T11:08:56;5.80;99.90
1429;DHT22;708;51.442;7.016;2023-12-04T11:11:27;5.80;99.90
1429;DHT22;708;51.442;7.016;2023-12-04T11:14:00;5.80;99.90
1429;DHT22;708;51.442;7.016;2023-12-04T11:16:31;5.80;99.90
1429;DHT22;708;51.442;7.016;2023-12-04T11:19:05;5.70;99.90
1429;DHT22;708;51.442;7.016;2023-12-04T11:21:34;5.80;99.90
1429;DHT22;708;51.442;7.016;2023-12-04T11:24:02;5.80;99.90
1429;DHT22;708;51.442;7.016;2023-12-04T11:26:31;5.70;99.90
1429;DHT22;708;51.442;7.016;2023-12-04T11:29:00;5.70;99.90
1429;DHT22;708;51.442;7.016;2023-12-04T11:31:27;5.70;99.90
1429;DHT22;708;51.442;7.016;2023-12-04T11:34:01;5.80;99.90
1429;DHT22;708;51.442;7.016;2023-12-04T11:36:28;5.80;99.90
1429;DHT22;708;51.442;7.016;2023-12-04T11:38:55;5.70;99.90
1429;DHT22;708;51.442;7.016;2023-12-04T11:41:23;5.70;99.90
1429;DHT22;708;51.442;7.016;2023-12-04T11:43:51;5.70;99.90
1429;DHT22;708;51.442;7.016;2023-12-04T11:46:21;5.80;99.90
1429;DHT22;708;51.442;7.016;2023-12-04T11:48:49;5.90;99.90
1429;DHT22;708;51.442;7.016;2023-12-04T11:51:46;5.90;99.90
1429;DHT22;708;51.442;7.016;2023-12-04T11:54:18;5.90;99.90
1429;DHT22;708;51.442;7.016;2023-12-04T11:57:00;6.00;99.90
1429;DHT22;708;51.442;7.016;2023-12-04T11:59:28;6.00;99.90
1429;DHT22;708;51.442;7.016;2023-12-04T12:01:56;6.10;99.90
1429;DHT22;708;51.442;7.016;2023-12-04T12:04:26;6.10;99.90
1429;DHT22;708;51.442;7.016;2023-12-04T12:06:53;6.20;99.90
1429;DHT22;708;51.442;7.016;2023-12-04T12:09:20;6.10;99.90
1429;DHT22;708;51.442;7.016;2023-12-04T12:11:49;6.10;99.90
1429;DHT22;708;51.442;7.016;2023-12-04T12:14:20;6.10;99.90
1429;DHT22;708;51.442;7.016;2023-12-04T12:16:47;6.00;99.90
1429;DHT22;708;51.442;7.016;2023-12-04T12:19:15;6.00;99.90
1429;DHT22;708;51.442;7.016;2023-12-04T12:21:44;6.00;99.90
1429;DHT22;708;51.442;7.016;2023-12-04T12:24:13;6.00;99.90
1429;DHT22;708;51.442;7.016;2023-12-04T12:26:40;6.00;99.90
1429;DHT22;708;51.442;7.016;2023-12-04T12:29:08;5.90;99.90
1429;DHT22;708;51.442;7.016;2023-12-04T12:31:35;6.00;99.90
1429;DHT22;708;51.442;7.016;2023-12-04T12:34:02;5.90;99.90
1429;DHT22;708;51.442;7.016;2023-12-04T12:36:30;5.70;99.90
1429;DHT22;708;51.442;7.016;2023-12-04T12:38:58;5.70;99.90
1429;DHT22;708;51.442;7.016;2023-12-04T12:41:26;5.50;99.90
1429;DHT22;708;51.442;7.016;2023-12-04T12:43:53;5.50;99.90
1429;DHT22;708;51.442;7.016;2023-12-04T12:46:20;5.40;99.90
1429;DHT22;708;51.442;7.016;2023-12-04T12:48:48;5.30;99.90
1429;DHT22;708;51.442;7.016;2023-12-04T12:51:14;5.30;99.90
1429;DHT22;708;51.442;7.016;2023-12-04T12:53:45;5.20;99.90
1429;DHT22;708;51.442;7.016;2023-12-04T12:56:12;5.20;99.90
1429;DHT22;708;51.442;7.016;2023-12-04T12:58:38;5.20;99.90
1429;DHT22;708;51.442;7.016;2023-12-04T13:01:05;5.10;99.90
1429;DHT22;708;51.442;7.016;2023-12-04T13:03:36;5.10;99.90
1429;DHT22;708;51.442;7.016;2023-12-04T13:06:04;5.00;99.90
1429;DHT22;708;51.442;7.016;2023-12-04T13:08:31;5.10;99.90
1429;DHT22;708;51.442;7.016;2023-12-04T13:10:59;5.00;99.90
1429;DHT22;708;51.442;7.016;2023-12-04T13:13:26;5.00;99.90
1429;DHT22;708;51.442;7.016;2023-12-04T13:15:54;5.00;99.90
1429;DHT22;708;51.442;7.016;2023-12-04T13:18:21;5.00;99.90
1429;DHT22;708;51.442;7.016;2023-12-04T13:20:47;5.10;99.90
1429;DHT22;708;51.442;7.016;2023-12-04T13:23:16;5.10;99.90
1429;DHT22;708;51.442;7.016;2023-12-04T13:25:43;5.10;99.90
1429;DHT22;708;51.442;7.016;2023-12-04T13:28:11;5.20;99.90
1429;DHT22;708;51.442;7.016;2023-12-04T13:30:39;5.20;99.90
1429;DHT22;708;51.442;7.016;2023-12-04T13:33:05;5.20;99.90
1429;DHT22;708;51.442;7.016;2023-12-04T13:35:33;5.30;99.90
1429;DHT22;708;51.442;7.016;2023-12-04T13:38:00;5.40;99.90
1429;DHT22;708;51.442;7.016;2023-12-04T13:40:27;5.50;99.90
1429;DHT22;708;51.442;7.016;2023-12-04T13:42:58;5.60;99.90
1429;DHT22;708;51.442;7.016;2023-12-04T13:45:43;5.70;99.90
1429;DHT22;708;51.442;7.016;2023-12-04T13:48:10;5.70;99.90
1429;DHT22;708;51.442;7.016;2023-12-04T13:50:37;5.70;99.90
1429;DHT22;708;51.442;7.016;2023-12-04T13:53:03;5.60;99.90
1429;DHT22;708;51.442;7.016;2023-12-04T13:55:33;5.50;99.90
1429;DHT22;708;51.442;7.016;2023-12-04T13:58:20;5.40;99.90
1429;DHT22;708;51.442;7.016;2023-12-04T14:01:05;5.40;99.90
1429;DHT22;708;51.442;7.016;2023-12-04T14:03:39;5.30;99.90
1429;DHT22;708;51.442;7.016;2023-12-04T14:06:06;5.30;99.90
1429;DHT22;708;51.442;7.016;2023-12-04T14:08:33;5.30;99.90
1429;DHT22;708;51.442;7.016;2023-12-04T14:11:01;5.30;99.90
1429;DHT22;708;51.442;7.016;2023-12-04T14:13:28;5.40;99.90
1429;DHT22;708;51.442;7.016;2023-12-04T14:15:54;5.40;99.90
1429;DHT22;708;51.442;7.016;2023-12-04T14:18:23;5.40;99.90
1429;DHT22;708;51.442;7.016;2023-12-04T14:20:51;5.20;99.90
1429;DHT22;708;51.442;7.016;2023-12-04T14:23:18;5.20;99.90
1429;DHT22;708;51.442;7.016;2023-12-04T14:25:46;5.10;99.90
1429;DHT22;708;51.442;7.016;2023-12-04T14:28:13;5.20;99.90
1429;DHT22;708;51.442;7.016;2023-12-04T14:30:40;5.10;99.90
1429;DHT22;708;51.442;7.016;2023-12-04T14:33:07;5.10;99.90
1429;DHT22;708;51.442;7.016;2023-12-04T14:35:36;5.10;99.90
1429;DHT22;708;51.442;7.016;2023-12-04T14:38:03;5.10;99.90
1429;DHT22;708;51.442;7.016;2023-12-04T14:40:30;5.10;99.90
1429;DHT22;708;51.442;7.016;2023-12-04T14:42:57;5.00;99.90
1429;DHT22;708;51.442;7.016;2023-12-04T14:45:24;5.00;99.90
1429;DHT22;708;51.442;7.016;2023-12-04T14:47:51;5.00;99.90
1429;DHT22;708;51.442;7.016;2023-12-04T14:50:20;5.00;99.90
1429;DHT22;708;51.442;7.016;2023-12-04T14:52:48;4.90;99.90
1429;DHT22;708;51.442;7.016;2023-12-04T14:55:16;4.90;99.90
1429;DHT22;708;51.442;7.016;2023-12-04T14:58:00;4.90;99.90
1429;DHT22;708;51.442;7.016;2023-12-04T15:00:40;4.90;99.90
1429;DHT22;708;51.442;7.016;2023-12-04T15:03:39;4.90;99.90
1429;DHT22;708;51.442;7.016;2023-12-04T15:06:24;4.90;99.90
1429;DHT22;708;51.442;7.016;2023-12-04T15:09:20;4.90;99.90
1429;DHT22;708;51.442;7.016;2023-12-04T15:12:34;4.90;99.90
1429;DHT22;708;51.442;7.016;2023-12-04T15:15:22;4.80;99.90
1429;DHT22;708;51.442;7.016;2023-12-04T15:18:04;4.80;99.90
1429;DHT22;708;51.442;7.016;2023-12-04T15:20:45;4.80;99.90
1429;DHT22;708;51.442;7.016;2023-12-04T15:23:11;4.80;99.90
1429;DHT22;708;51.442;7.016;2023-12-04T15:25:40;4.80;99.90
1429;DHT22;708;51.442;7.016;2023-12-04T15:28:07;4.80;99.90
1429;DHT22;708;51.442;7.016;2023-12-04T15:30:33;4.70;99.90
1429;DHT22;708;51.442;7.016;2023-12-04T15:33:00;4.60;99.90
1429;DHT22;708;51.442;7.016;2023-12-04T15:35:26;4.60;99.90
1429;DHT22;708;51.442;7.016;2023-12-04T15:37:52;4.70;99.90
1429;DHT22;708;51.442;7.016;2023-12-04T15:40:18;4.70;99.90
1429;DHT22;708;51.442;7.016;2023-12-04T15:42:46;4.70;99.90
1429;DHT22;708;51.442;7.016;2023-12-04T15:45:13;4.70;99.90
1429;DHT22;708;51.442;7.016;2023-12-04T15:47:40;4.70;99.90
1429;DHT22;708;51.442;7.016;2023-12-04T15:50:07;4.70;99.90
1429;DHT22;708;51.442;7.016;2023-12-04T15:52:34;4.70;99.90
1429;DHT22;708;51.442;7.016;2023-12-04T15:55:05;4.80;99.90
1429;DHT22;708;51.442;7.016;2023-12-04T15:57:33;4.70;99.90
1429;DHT22;708;51.442;7.016;2023-12-04T16:00:00;4.70;99.90
1429;DHT22;708;51.442;7.016;2023-12-04T16:02:27;4.70;99.90
1429;DHT22;708;51.442;7.016;2023-12-04T16:04:57;4.70;99.90
1429;DHT22;708;51.442;7.016;2023-12-04T16:07:24;4.70;99.90
1429;DHT22;708;51.442;7.016;2023-12-04T16:09:50;4.70;99.90
1429;DHT22;708;51.442;7.016;2023-12-04T16:12:17;4.60;99.90
1429;DHT22;708;51.442;7.016;2023-12-04T16:14:45;4.70;99.90
1429;DHT22;708;51.442;7.016;2023-12-04T16:17:22;4.60;99.90
1429;DHT22;708;51.442;7.016;2023-12-04T16:19:48;4.70;99.90
1429;DHT22;708;51.442;7.016;2023-12-04T16:22:15;4.70;99.90
1429;DHT22;708;51.442;7.016;2023-12-04T16:24:42;4.60;99.90
1429;DHT22;708;51.442;7.016;2023-12-04T16:27:09;4.60;99.90
1429;DHT22;708;51.442;7.016;2023-12-04T16:29:36;4.50;99.90
1429;DHT22;708;51.442;7.016;2023-12-04T16:32:04;4.50;99.90
1429;DHT22;708;51.442;7.016;2023-12-04T16:34:32;4.40;99.90
1429;DHT22;708;51.442;7.016;2023-12-04T16:36:59;4.40;99.90
1429;DHT22;708;51.442;7.016;2023-12-04T16:39:26;4.30;99.90
1429;DHT22;708;51.442;7.016;2023-12-04T16:41:54;4.30;99.90